Emeop — FAD2721 — position and weather

sailwx.info

Track history (hours):
 
Tides and Currents Weather Stations Pressure Air Temp Water Temp Dewpoint Dewpoint Depression Visibility Wind Speed Wind Dir Waves Ship Positions

Emeop

Last reported at 2018-May-13 16:26 UTC. Time now 2018-May-20 09:55 UTC.
Position N 46°09' W 001°10'.

Length 5 m.

Type: Sailing vessel. MMSI: 227376840.

Date/timePositionNaut miles runAvg speedWind from/ knotsBaromVisibWave heightAir tempDewpointWater temp
2018-May-13 16:26N 46°09' W 001°10'0 0.2
2018-May-13 16:00N 46°09' W 001°10'1 2.3
2018-May-13 15:30N 46°08' W 001°12'3 6.1
2018-May-13 15:00N 46°10' W 001°15'3 6.9
2018-May-13 14:30N 46°13' W 001°18'3 6.5
2018-May-13 14:00N 46°15' W 001°22'9 6.6
2018-May-13 12:37N 46°20' W 001°33'2 6.4
2018-May-13 12:20N 46°21' W 001°36'2 6.3
2018-May-13 12:00N 46°22' W 001°38'3 6.6
2018-May-13 11:30N 46°23' W 001°42'3 5.3
2018-May-13 11:00N 46°25' W 001°46'3 5.6
2018-May-13 10:30N 46°26' W 001°49'3 6.3
2018-May-13 10:00N 46°28' W 001°52'3 5.9
2018-May-13 09:30N 46°30' W 001°56'3 6.3
2018-May-13 09:00N 46°32' W 001°59'64 3.4
2018-May-12 13:52N 47°24' W 002°54'2 6.5
2018-May-12 13:30N 47°26' W 002°56'2 4.1
2018-May-12 12:56N 47°28' W 002°58'2 5.2
2018-May-12 12:30N 47°31' W 002°59'2 4.6
2018-May-12 12:00N 47°33' W 002°59'2 3.7
2018-May-12 11:30N 47°34' W 003°01'1 0.1
2018-May-11 17:05N 47°35' W 003°02'0 0.0
2018-May-11 16:59N 47°35' W 003°02'0 1.0
2018-May-11 16:29N 47°35' W 003°01'2 5.0
2018-May-11 16:00N 47°33' W 002°60'3 6.3
2018-May-11 15:30N 47°30' W 002°57'3 6.1
2018-May-11 15:00N 47°28' W 002°54'4 8.3
2018-May-11 14:30N 47°24' W 002°51'6 1.8
2018-May-11 11:10N 47°22' W 002°59'1 6.0
2018-May-11 10:57N 47°22' W 003°01'1 3.1
2018-May-11 10:30N 47°24' W 003°01'3 5.1
2018-May-11 10:00N 47°25' W 003°04'3 6.3
2018-May-11 09:30N 47°27' W 003°08'3 4.7
2018-May-11 08:57N 47°29' W 003°11'2 4.7
2018-May-11 08:30N 47°30' W 003°14'2 3.9
2018-May-11 08:00N 47°31' W 003°15'3 5.7
2018-May-11 07:30N 47°34' W 003°15'2 3.8
2018-May-11 07:00N 47°35' W 003°17'3 6.5
2018-May-11 06:29N 47°35' W 003°22'3 5.9
2018-May-11 06:00N 47°35' W 003°26'3 6.1
2018-May-11 05:31N 47°35' W 003°31'3 6.4
2018-May-11 05:00N 47°35' W 003°36'2 4.3
2018-May-11 04:29N 47°35' W 003°39'10 2.2
2018-May-10 23:48N 47°40' W 003°53'8 2.5
2018-May-10 20:47N 47°40' W 003°41'2 4.1
2018-May-10 20:24N 47°41' W 003°40'2 3.2
2018-May-10 19:54N 47°40' W 003°38'2 2.8
2018-May-10 19:17N 47°40' W 003°35'1 5.5
2018-May-10 19:00N 47°41' W 003°34'2 4.8
2018-May-10 18:30N 47°43' W 003°32'3 5.2
2018-May-10 18:00N 47°42' W 003°29'2 4.7
2018-May-10 17:30N 47°40' W 003°27'3 5.5
2018-May-10 17:00N 47°38' W 003°24'3 5.6
2018-May-10 16:30N 47°36' W 003°21'3 5.4
2018-May-10 16:00N 47°34' W 003°18'3 5.6
2018-May-10 15:30N 47°33' W 003°15'3 5.3
2018-May-10 15:00N 47°31' W 003°12'3 5.4
2018-May-10 14:30N 47°29' W 003°10'2 4.8
2018-May-10 14:00N 47°27' W 003°07'2 3.8
2018-May-10 13:28N 47°26' W 003°05'2 4.4
2018-May-10 13:00N 47°27' W 003°02'4 7.8
2018-May-10 12:30N 47°31' W 003°02'3 5.8
2018-May-10 12:00N 47°33' W 003°01'0 0.6
2018-May-10 11:30N 47°33' W 003°01'2 3.9
2018-May-10 11:00N 47°35' W 003°01'0 0.0
2018-May-09 16:01N 47°35' W 003°01'0 0.0
2018-May-09 15:58N 47°35' W 003°01'0 0.8
2018-May-09 15:30N 47°35' W 003°01'2 4.9
2018-May-09 15:00N 47°33' W 003°01'3 5.6
2018-May-09 14:30N 47°30' W 003°03'2 4.7
2018-May-09 14:00N 47°31' W 003°07'0 0.0
2018-May-07 18:18N 47°30' W 003°07'1 4.4
2018-May-07 17:59N 47°30' W 003°05'3 5.2
2018-May-07 17:30N 47°31' W 003°01'2 4.9
2018-May-07 17:00N 47°28' W 003°00'3 5.4
2018-May-07 16:30N 47°26' W 002°58'3 5.5
2018-May-07 16:00N 47°23' W 002°56'1 1.4
2018-May-07 15:30N 47°24' W 002°56'3 5.0
2018-May-07 14:59N 47°26' W 002°60'3 5.6
2018-May-07 14:30N 47°28' W 003°02'2 5.0
2018-May-07 14:00N 47°29' W 003°05'2 3.4
2018-May-07 13:28N 47°30' W 003°07'0 0.0
2018-May-06 17:50N 47°30' W 003°07'1 4.3
2018-May-06 17:30N 47°29' W 003°06'2 3.7
2018-May-06 17:00N 47°29' W 003°03'1 1.7
2018-May-06 16:30N 47°29' W 003°03'2 4.3
2018-May-06 16:00N 47°31' W 003°04'1 2.7
2018-May-06 15:30N 47°31' W 003°06'1 1.9
2018-May-06 14:59N 47°30' W 003°07'0 0.0
2018-May-05 07:53N 47°30' W 003°07'0 0.1
2018-May-05 07:29N 47°30' W 003°07'0 0.2
2018-May-05 07:00N 47°31' W 003°07'3 6.1
2018-May-05 06:29N 47°28' W 003°04'2 4.4
2018-May-05 05:59N 47°26' W 003°02'2 4.1
2018-May-05 05:29N 47°24' W 003°02'4 6.8
2018-May-05 04:58N 47°21' W 002°59'18 6.9
2018-May-05 02:24N 47°07' W 002°43'40 5.4
2018-May-04 19:04N 46°39' W 002°01'1 6.6
2018-May-04 18:57N 46°40' W 002°00'1 2.9
2018-May-04 18:29N 46°39' W 001°59'3 5.9
2018-May-04 18:00N 46°36' W 002°00'1 2.9
2018-May-04 17:30N 46°35' W 001°58'3 5.6
2018-May-04 17:00N 46°36' W 001°54'3 5.6
2018-May-04 16:28N 46°33' W 001°55'3 5.8
2018-May-04 16:00N 46°31' W 001°56'3 5.9
2018-May-04 15:30N 46°28' W 001°57'3 5.9
2018-May-04 15:00N 46°25' W 001°58'2 3.8
2018-May-04 14:30N 46°24' W 001°55'3 5.9
2018-May-04 14:00N 46°24' W 001°51'2 3.7
2018-May-04 13:30N 46°22' W 001°50'4 5.7
2018-May-04 12:48N 46°18' W 001°51'1 4.5
2018-May-04 12:30N 46°17' W 001°51'2 4.4
2018-May-04 11:57N 46°16' W 001°48'12 3.8
2018-May-04 08:44N 46°11' W 001°32'2 7.7
2018-May-04 08:28N 46°09' W 001°29'3 7.3
2018-May-04 08:00N 46°08' W 001°25'3 6.4
2018-May-04 07:30N 46°07' W 001°21'3 6.7
2018-May-04 07:00N 46°07' W 001°16'3 6.2
2018-May-04 06:30N 46°08' W 001°11'1 1.8
2018-May-04 05:58N 46°09' W 001°10'  
Track history (hours):
 
Tides and Currents Weather Stations Pressure Air Temp Water Temp Dewpoint Dewpoint Depression Visibility Wind Speed Wind Dir Waves Ship Positions

Emeop

Last reported at 2018-May-13 16:26 UTC. Time now 2018-May-20 09:55 UTC.
Position N 46°09' W 001°10'.

Length 5 m.

Type: Sailing vessel. MMSI: 227376840.

Date/timePositionNaut miles runAvg speedWind from/ knotsBaromVisibWave heightAir tempDewpointWater temp
2018-May-13 16:26N 46°09' W 001°10'0 0.2
2018-May-13 16:00N 46°09' W 001°10'1 2.3
2018-May-13 15:30N 46°08' W 001°12'3 6.1
2018-May-13 15:00N 46°10' W 001°15'3 6.9
2018-May-13 14:30N 46°13' W 001°18'3 6.5
2018-May-13 14:00N 46°15' W 001°22'9 6.6
2018-May-13 12:37N 46°20' W 001°33'2 6.4
2018-May-13 12:20N 46°21' W 001°36'2 6.3
2018-May-13 12:00N 46°22' W 001°38'3 6.6
2018-May-13 11:30N 46°23' W 001°42'3 5.3
2018-May-13 11:00N 46°25' W 001°46'3 5.6
2018-May-13 10:30N 46°26' W 001°49'3 6.3
2018-May-13 10:00N 46°28' W 001°52'3 5.9
2018-May-13 09:30N 46°30' W 001°56'3 6.3
2018-May-13 09:00N 46°32' W 001°59'64 3.4
2018-May-12 13:52N 47°24' W 002°54'2 6.5
2018-May-12 13:30N 47°26' W 002°56'2 4.1
2018-May-12 12:56N 47°28' W 002°58'2 5.2
2018-May-12 12:30N 47°31' W 002°59'2 4.6
2018-May-12 12:00N 47°33' W 002°59'2 3.7
2018-May-12 11:30N 47°34' W 003°01'1 0.1
2018-May-11 17:05N 47°35' W 003°02'0 0.0
2018-May-11 16:59N 47°35' W 003°02'0 1.0
2018-May-11 16:29N 47°35' W 003°01'2 5.0
2018-May-11 16:00N 47°33' W 002°60'3 6.3
2018-May-11 15:30N 47°30' W 002°57'3 6.1
2018-May-11 15:00N 47°28' W 002°54'4 8.3
2018-May-11 14:30N 47°24' W 002°51'6 1.8
2018-May-11 11:10N 47°22' W 002°59'1 6.0
2018-May-11 10:57N 47°22' W 003°01'1 3.1
2018-May-11 10:30N 47°24' W 003°01'3 5.1
2018-May-11 10:00N 47°25' W 003°04'3 6.3
2018-May-11 09:30N 47°27' W 003°08'3 4.7
2018-May-11 08:57N 47°29' W 003°11'2 4.7
2018-May-11 08:30N 47°30' W 003°14'2 3.9
2018-May-11 08:00N 47°31' W 003°15'3 5.7
2018-May-11 07:30N 47°34' W 003°15'2 3.8
2018-May-11 07:00N 47°35' W 003°17'3 6.5
2018-May-11 06:29N 47°35' W 003°22'3 5.9
2018-May-11 06:00N 47°35' W 003°26'3 6.1
2018-May-11 05:31N 47°35' W 003°31'3 6.4
2018-May-11 05:00N 47°35' W 003°36'2 4.3
2018-May-11 04:29N 47°35' W 003°39'10 2.2
2018-May-10 23:48N 47°40' W 003°53'8 2.5
2018-May-10 20:47N 47°40' W 003°41'2 4.1
2018-May-10 20:24N 47°41' W 003°40'2 3.2
2018-May-10 19:54N 47°40' W 003°38'2 2.8
2018-May-10 19:17N 47°40' W 003°35'1 5.5
2018-May-10 19:00N 47°41' W 003°34'2 4.8
2018-May-10 18:30N 47°43' W 003°32'3 5.2
2018-May-10 18:00N 47°42' W 003°29'2 4.7
2018-May-10 17:30N 47°40' W 003°27'3 5.5
2018-May-10 17:00N 47°38' W 003°24'3 5.6
2018-May-10 16:30N 47°36' W 003°21'3 5.4
2018-May-10 16:00N 47°34' W 003°18'3 5.6
2018-May-10 15:30N 47°33' W 003°15'3 5.3
2018-May-10 15:00N 47°31' W 003°12'3 5.4
2018-May-10 14:30N 47°29' W 003°10'2 4.8
2018-May-10 14:00N 47°27' W 003°07'2 3.8
2018-May-10 13:28N 47°26' W 003°05'2 4.4
2018-May-10 13:00N 47°27' W 003°02'4 7.8
2018-May-10 12:30N 47°31' W 003°02'3 5.8
2018-May-10 12:00N 47°33' W 003°01'0 0.6
2018-May-10 11:30N 47°33' W 003°01'2 3.9
2018-May-10 11:00N 47°35' W 003°01'0 0.0
2018-May-09 16:01N 47°35' W 003°01'0 0.0
2018-May-09 15:58N 47°35' W 003°01'0 0.8
2018-May-09 15:30N 47°35' W 003°01'2 4.9
2018-May-09 15:00N 47°33' W 003°01'3 5.6
2018-May-09 14:30N 47°30' W 003°03'2 4.7
2018-May-09 14:00N 47°31' W 003°07'0 0.0
2018-May-07 18:18N 47°30' W 003°07'1 4.4
2018-May-07 17:59N 47°30' W 003°05'3 5.2
2018-May-07 17:30N 47°31' W 003°01'2 4.9
2018-May-07 17:00N 47°28' W 003°00'3 5.4
2018-May-07 16:30N 47°26' W 002°58'3 5.5
2018-May-07 16:00N 47°23' W 002°56'1 1.4
2018-May-07 15:30N 47°24' W 002°56'3 5.0
2018-May-07 14:59N 47°26' W 002°60'3 5.6
2018-May-07 14:30N 47°28' W 003°02'2 5.0
2018-May-07 14:00N 47°29' W 003°05'2 3.4
2018-May-07 13:28N 47°30' W 003°07'0 0.0
2018-May-06 17:50N 47°30' W 003°07'1 4.3
2018-May-06 17:30N 47°29' W 003°06'2 3.7
2018-May-06 17:00N 47°29' W 003°03'1 1.7
2018-May-06 16:30N 47°29' W 003°03'2 4.3
2018-May-06 16:00N 47°31' W 003°04'1 2.7
2018-May-06 15:30N 47°31' W 003°06'1 1.9
2018-May-06 14:59N 47°30' W 003°07'0 0.0
2018-May-05 07:53N 47°30' W 003°07'0 0.1
2018-May-05 07:29N 47°30' W 003°07'0 0.2
2018-May-05 07:00N 47°31' W 003°07'3 6.1
2018-May-05 06:29N 47°28' W 003°04'2 4.4
2018-May-05 05:59N 47°26' W 003°02'2 4.1
2018-May-05 05:29N 47°24' W 003°02'4 6.8
2018-May-05 04:58N 47°21' W 002°59'18 6.9
2018-May-05 02:24N 47°07' W 002°43'40 5.4
2018-May-04 19:04N 46°39' W 002°01'1 6.6
2018-May-04 18:57N 46°40' W 002°00'1 2.9
2018-May-04 18:29N 46°39' W 001°59'3 5.9
2018-May-04 18:00N 46°36' W 002°00'1 2.9
2018-May-04 17:30N 46°35' W 001°58'3 5.6
2018-May-04 17:00N 46°36' W 001°54'3 5.6
2018-May-04 16:28N 46°33' W 001°55'3 5.8
2018-May-04 16:00N 46°31' W 001°56'3 5.9
2018-May-04 15:30N 46°28' W 001°57'3 5.9
2018-May-04 15:00N 46°25' W 001°58'2 3.8
2018-May-04 14:30N 46°24' W 001°55'3 5.9
2018-May-04 14:00N 46°24' W 001°51'2 3.7
2018-May-04 13:30N 46°22' W 001°50'4 5.7
2018-May-04 12:48N 46°18' W 001°51'1 4.5
2018-May-04 12:30N 46°17' W 001°51'2 4.4
2018-May-04 11:57N 46°16' W 001°48'12 3.8
2018-May-04 08:44N 46°11' W 001°32'2 7.7
2018-May-04 08:28N 46°09' W 001°29'3 7.3
2018-May-04 08:00N 46°08' W 001°25'3 6.4
2018-May-04 07:30N 46°07' W 001°21'3 6.7
2018-May-04 07:00N 46°07' W 001°16'3 6.2
2018-May-04 06:30N 46°08' W 001°11'1 1.8
2018-May-04 05:58N 46°09' W 001°10'  

Dump ship's entire track history